createdAt,value
2022-08-17T00:00:43.332Z,22.66
2022-08-17T00:03:15.352Z,22.90
2022-08-17T00:05:57.912Z,22.43
2022-08-17T00:08:29.275Z,22.86
2022-08-17T00:10:56.960Z,22.86
2022-08-17T00:13:42.199Z,22.21
2022-08-17T00:16:56.396Z,22.41
2022-08-17T00:19:22.969Z,22.68
2022-08-17T00:22:30.963Z,22.86
2022-08-17T00:24:39.766Z,22.57
2022-08-17T00:27:06.806Z,22.37
2022-08-17T00:29:33.590Z,22.59
2022-08-17T00:32:01.808Z,22.17
2022-08-17T00:34:49.166Z,22.85
2022-08-17T00:37:16.237Z,22.34
2022-08-17T00:39:44.442Z,22.51
2022-08-17T00:42:16.880Z,22.84
2022-08-17T00:44:44.212Z,22.68
2022-08-17T00:47:11.240Z,22.49
2022-08-17T00:49:38.369Z,22.56
2022-08-17T00:52:15.390Z,22.70
2022-08-17T00:54:55.459Z,22.17
2022-08-17T00:57:35.085Z,22.10
2022-08-17T01:00:16.404Z,22.91
2022-08-17T01:02:46.891Z,22.81
2022-08-17T01:05:21.203Z,22.86
2022-08-17T01:07:51.033Z,22.41
2022-08-17T01:11:00.533Z,22.84
2022-08-17T01:13:15.061Z,22.10
2022-08-17T01:15:48.716Z,21.72
2022-08-17T01:18:16.631Z,22.16
2022-08-17T01:20:52.844Z,22.23
2022-08-17T01:23:23.395Z,22.76
2022-08-17T01:25:54.217Z,22.65
2022-08-17T01:28:53.191Z,22.71
2022-08-17T01:31:11.745Z,21.87
2022-08-17T01:33:49.073Z,22.45
2022-08-17T01:36:17.876Z,22.50
2022-08-17T01:38:44.699Z,22.55
2022-08-17T01:41:15.877Z,22.52
2022-08-17T01:43:51.558Z,22.21
2022-08-17T01:46:25.208Z,22.47
2022-08-17T01:48:53.436Z,22.33
2022-08-17T01:51:21.467Z,21.56
2022-08-17T01:53:52.791Z,22.35
2022-08-17T01:56:23.016Z,21.74
2022-08-17T02:02:47.845Z,22.24
2022-08-17T02:05:15.553Z,22.01
2022-08-17T02:07:59.982Z,22.22
2022-08-17T02:10:34.020Z,22.17
2022-08-17T02:13:03.583Z,21.90
2022-08-17T02:15:30.903Z,21.72
2022-08-17T02:17:57.939Z,22.14
2022-08-17T02:20:41.262Z,21.34
2022-08-17T02:23:12.654Z,22.05
2022-08-17T02:25:43.402Z,22.00
2022-08-17T02:28:11.119Z,21.31
2022-08-17T02:31:01.228Z,21.65
2022-08-17T02:33:41.728Z,21.44
2022-08-17T02:36:09.557Z,21.94
2022-08-17T02:38:40.297Z,21.74
2022-08-17T02:41:07.806Z,21.85
2022-08-17T02:43:49.753Z,21.89
2022-08-17T02:46:16.981Z,20.86
2022-08-17T02:48:43.839Z,21.18
2022-08-17T02:51:10.771Z,21.07
2022-08-17T03:00:49.640Z,20.44
2022-08-17T03:03:24.061Z,20.50
2022-08-17T03:08:49.590Z,20.42
2022-08-17T03:11:29.054Z,20.64
2022-08-17T03:13:58.763Z,21.63
2022-08-17T03:16:25.685Z,20.84
2022-08-17T03:18:54.478Z,20.79
2022-08-17T03:21:21.852Z,21.47
2022-08-17T03:23:48.840Z,21.39
2022-08-17T03:26:21.475Z,21.13
2022-08-17T03:28:49.090Z,20.78
2022-08-17T03:31:16.203Z,21.03
2022-08-17T03:33:43.570Z,20.68
2022-08-17T03:36:11.233Z,20.64
2022-08-17T03:38:38.909Z,19.98
2022-08-17T03:41:07.185Z,20.37
2022-08-17T03:43:34.880Z,21.20
2022-08-17T03:46:28.367Z,20.99
2022-08-17T03:49:25.491Z,20.84
2022-08-17T03:52:12.768Z,21.09
2022-08-17T03:55:16.625Z,20.41
2022-08-17T03:57:43.761Z,20.84
2022-08-17T04:00:12.933Z,20.85
2022-08-17T04:02:42.486Z,21.19
2022-08-17T04:05:20.289Z,19.99
2022-08-17T04:07:48.014Z,20.15
2022-08-17T04:10:15.105Z,21.06
2022-08-17T04:12:49.063Z,21.44
2022-08-17T04:15:54.067Z,20.82
2022-08-17T04:18:21.379Z,21.48
2022-08-17T04:20:48.177Z,21.42
2022-08-17T04:23:20.389Z,20.78
2022-08-17T04:25:51.128Z,20.66
2022-08-17T04:28:24.557Z,20.70
2022-08-17T04:30:51.940Z,21.42
2022-08-17T04:33:24.426Z,21.12
2022-08-17T04:36:53.399Z,21.59
2022-08-17T04:40:52.313Z,21.76
2022-08-17T04:44:07.773Z,21.89
2022-08-17T04:46:36.250Z,21.87
2022-08-17T04:49:09.384Z,22.10
2022-08-17T04:51:47.953Z,22.16
2022-08-17T04:54:29.013Z,22.04
2022-08-17T04:56:56.146Z,22.05
2022-08-17T04:59:23.447Z,22.46
2022-08-17T05:01:51.825Z,22.49
2022-08-17T05:04:34.137Z,22.11
2022-08-17T05:07:03.276Z,21.74
2022-08-17T05:09:31.067Z,22.26
2022-08-17T05:12:03.525Z,22.55
2022-08-17T05:14:40.618Z,22.36
2022-08-17T05:17:11.382Z,22.43
2022-08-17T05:19:38.551Z,23.13
2022-08-17T05:22:06.161Z,22.56
2022-08-17T05:24:43.369Z,22.90
2022-08-17T05:27:18.920Z,22.94
2022-08-17T05:29:46.406Z,22.81
2022-08-17T05:32:37.897Z,23.47
2022-08-17T05:35:02.010Z,23.14
2022-08-17T05:37:29.202Z,23.17
2022-08-17T05:39:56.187Z,23.58
2022-08-17T05:42:24.092Z,23.44
2022-08-17T05:44:50.910Z,23.26
2022-08-17T05:47:18.374Z,23.24
2022-08-17T05:49:45.665Z,23.52
2022-08-17T05:52:56.382Z,23.95
2022-08-17T05:55:46.845Z,23.52
2022-08-17T05:58:16.612Z,24.02
2022-08-17T06:01:00.349Z,23.58
2022-08-17T06:04:16.697Z,24.17
2022-08-17T06:07:00.645Z,23.16
2022-08-17T06:10:28.904Z,23.70
2022-08-17T06:31:23.627Z,24.03
2022-08-17T06:33:54.468Z,24.51
2022-08-17T06:39:41.491Z,25.03
2022-08-17T06:45:24.571Z,24.80
2022-08-17T06:50:44.551Z,25.23
2022-08-17T06:53:46.380Z,25.27
2022-08-17T06:56:27.149Z,24.60
2022-08-17T06:59:19.763Z,25.43
2022-08-17T07:01:52.662Z,24.51
2022-08-17T07:04:26.828Z,25.41
2022-08-17T07:07:01.348Z,25.28
2022-08-17T07:09:35.787Z,25.91
2022-08-17T07:12:12.235Z,25.50
2022-08-17T07:15:04.537Z,26.01
2022-08-17T07:17:46.722Z,25.47
2022-08-17T07:23:39.154Z,25.97
2022-08-17T07:29:21.109Z,26.15
2022-08-17T07:31:49.094Z,25.75
2022-08-17T07:34:22.320Z,26.60
2022-08-17T07:37:05.471Z,26.56
2022-08-17T07:39:35.377Z,26.52
2022-08-17T07:42:22.995Z,26.45
2022-08-17T07:44:55.881Z,27.59
2022-08-17T07:47:41.631Z,27.43
2022-08-17T07:50:27.235Z,27.72
2022-08-17T07:52:54.338Z,27.45
2022-08-17T07:55:31.058Z,28.12
2022-08-17T07:58:02.073Z,28.12
2022-08-17T08:00:33.388Z,27.94
2022-08-17T08:03:22.178Z,27.09
2022-08-17T08:09:45.728Z,27.38
2022-08-17T08:16:26.035Z,28.65
2022-08-17T08:19:28.412Z,28.21
2022-08-17T08:22:20.032Z,28.55
2022-08-17T08:29:33.229Z,29.18
2022-08-17T08:33:11.727Z,28.41
2022-08-17T08:41:54.012Z,29.57
2022-08-17T08:45:00.377Z,29.18
2022-08-17T08:47:50.804Z,29.82
2022-08-17T08:50:37.897Z,29.48
2022-08-17T08:53:15.155Z,29.84
2022-08-17T08:55:51.936Z,29.05
2022-08-17T08:58:41.276Z,30.07
2022-08-17T09:01:44.269Z,29.79
2022-08-17T09:05:02.692Z,29.90
2022-08-17T09:08:03.295Z,30.34
2022-08-17T09:10:35.782Z,30.37
2022-08-17T09:13:29.111Z,30.44
2022-08-17T09:16:06.771Z,30.48
2022-08-17T09:18:59.923Z,30.58
2022-08-17T09:22:21.049Z,30.63
2022-08-17T09:25:21.732Z,29.97
2022-08-17T09:28:28.856Z,30.23
2022-08-17T09:31:04.249Z,30.25
2022-08-17T09:33:37.100Z,30.73
2022-08-17T09:36:11.930Z,30.41
2022-08-17T09:39:03.459Z,31.19
2022-08-17T09:41:33.094Z,31.21
2022-08-17T09:44:23.425Z,31.14
2022-08-17T09:46:56.947Z,31.34
2022-08-17T09:49:40.615Z,31.23
2022-08-17T09:52:21.364Z,31.02
2022-08-17T09:54:51.397Z,31.47
2022-08-17T09:57:31.056Z,31.34
2022-08-17T10:00:15.030Z,31.69
2022-08-17T10:02:50.932Z,31.64
2022-08-17T10:05:47.103Z,31.49
2022-08-17T10:08:30.570Z,31.55
2022-08-17T10:11:05.844Z,31.57
2022-08-17T10:14:36.584Z,31.96
2022-08-17T10:17:27.638Z,31.86
2022-08-17T10:20:12.378Z,32.13
2022-08-17T10:23:05.908Z,32.26
2022-08-17T10:26:15.641Z,32.02
2022-08-17T10:29:06.513Z,32.29
2022-08-17T10:31:47.450Z,32.18
2022-08-17T10:34:46.006Z,32.53
2022-08-17T10:37:13.192Z,32.61
2022-08-17T10:39:57.470Z,32.18
2022-08-17T10:42:32.926Z,31.87
2022-08-17T10:45:16.085Z,31.93
2022-08-17T10:48:05.025Z,32.11
2022-08-17T10:50:54.624Z,32.55
2022-08-17T10:53:44.483Z,32.55
2022-08-17T10:56:18.834Z,32.50
2022-08-17T10:58:49.880Z,32.47
2022-08-17T11:01:24.625Z,32.58
2022-08-17T11:04:41.244Z,32.31
2022-08-17T11:07:44.137Z,32.00
2022-08-17T11:11:11.660Z,32.60
2022-08-17T11:13:55.332Z,32.62
2022-08-17T11:16:35.653Z,32.61
2022-08-17T11:19:14.973Z,32.71
2022-08-17T11:22:05.574Z,32.88
2022-08-17T11:24:49.169Z,32.61
2022-08-17T11:27:31.245Z,33.06
2022-08-17T11:30:03.384Z,33.06
2022-08-17T11:32:32.297Z,32.99
2022-08-17T11:35:12.700Z,32.91
2022-08-17T11:38:05.066Z,32.76
2022-08-17T11:40:48.709Z,32.78
2022-08-17T11:43:44.484Z,32.70
2022-08-17T11:47:06.549Z,33.09
2022-08-17T11:50:15.102Z,33.16
2022-08-17T11:52:47.026Z,33.09
2022-08-17T11:55:36.326Z,33.25
2022-08-17T11:58:06.727Z,32.45
2022-08-17T12:00:45.516Z,33.28
2022-08-17T12:03:32.054Z,32.89
2022-08-17T12:06:30.493Z,32.98
2022-08-17T12:09:21.272Z,33.12
2022-08-17T12:12:13.305Z,32.89
2022-08-17T12:15:10.510Z,32.41
2022-08-17T12:17:40.793Z,32.89
2022-08-17T12:20:35.050Z,33.01
2022-08-17T12:23:07.131Z,33.53
2022-08-17T12:25:43.819Z,32.95
2022-08-17T12:28:32.774Z,32.72
2022-08-17T12:31:04.050Z,33.09
2022-08-17T12:33:43.995Z,33.06
2022-08-17T12:36:19.137Z,33.18
2022-08-17T12:39:14.114Z,32.80
2022-08-17T12:41:45.350Z,32.67
2022-08-17T12:44:24.945Z,32.44
2022-08-17T12:47:22.355Z,32.50
2022-08-17T12:50:08.379Z,32.57
2022-08-17T12:52:59.640Z,32.82
2022-08-17T12:55:32.686Z,32.93
2022-08-17T12:58:02.325Z,32.94
2022-08-17T13:00:32.195Z,32.70
2022-08-17T13:03:03.381Z,32.98
2022-08-17T13:05:36.031Z,32.97
2022-08-17T13:08:13.887Z,33.03
2022-08-17T13:10:41.271Z,32.99
2022-08-17T13:13:23.508Z,33.28
2022-08-17T13:15:57.588Z,33.25
2022-08-17T13:18:36.605Z,33.51
2022-08-17T13:21:03.893Z,33.77
2022-08-17T13:23:32.357Z,33.74
2022-08-17T13:26:06.851Z,33.59
2022-08-17T13:28:36.816Z,33.63
2022-08-17T13:31:26.294Z,34.17
2022-08-17T13:34:13.374Z,33.87
2022-08-17T13:36:42.331Z,33.69
2022-08-17T13:39:16.421Z,33.59
2022-08-17T13:41:43.401Z,33.97
2022-08-17T13:44:42.647Z,34.03
2022-08-17T13:47:20.777Z,34.01
2022-08-17T13:49:49.441Z,34.12
2022-08-17T13:52:38.031Z,34.17
2022-08-17T13:55:19.744Z,34.06
2022-08-17T13:57:49.962Z,33.78
2022-08-17T14:00:35.381Z,34.09
2022-08-17T14:03:07.510Z,34.42
2022-08-17T14:05:38.244Z,34.05
2022-08-17T14:08:07.011Z,34.22
2022-08-17T14:10:36.627Z,33.93
2022-08-17T14:13:04.257Z,33.90
2022-08-17T14:15:54.928Z,34.19
2022-08-17T14:18:35.743Z,34.52
2022-08-17T14:21:08.458Z,34.28
2022-08-17T14:23:37.028Z,34.52
2022-08-17T14:26:04.913Z,34.73
2022-08-17T14:28:32.248Z,34.76
2022-08-17T14:31:00.831Z,34.86
2022-08-17T14:33:29.033Z,34.91
2022-08-17T14:35:57.585Z,34.97
2022-08-17T14:38:24.696Z,34.58
2022-08-17T14:40:51.903Z,34.41
2022-08-17T14:43:20.473Z,34.23
2022-08-17T14:45:47.433Z,34.09
2022-08-17T14:48:14.227Z,34.23
2022-08-17T14:50:43.114Z,34.20
2022-08-17T14:53:12.625Z,34.29
2022-08-17T14:55:41.993Z,34.29
2022-08-17T14:58:09.495Z,34.47
2022-08-17T15:00:37.235Z,34.04
2022-08-17T15:03:05.305Z,34.49
2022-08-17T15:05:34.876Z,34.51
2022-08-17T15:08:02.808Z,34.37
2022-08-17T15:10:30.413Z,34.41
2022-08-17T15:12:58.070Z,34.43
2022-08-17T15:15:24.953Z,34.36
2022-08-17T15:17:51.924Z,34.22
2022-08-17T15:20:22.977Z,34.05
2022-08-17T15:22:50.995Z,34.03
2022-08-17T15:25:20.135Z,34.20
2022-08-17T15:27:47.611Z,33.76
2022-08-17T15:30:15.937Z,33.93
2022-08-17T15:32:51.233Z,34.25
2022-08-17T15:35:27.406Z,33.67
2022-08-17T15:38:11.316Z,34.06
2022-08-17T15:40:44.155Z,33.83
2022-08-17T15:43:15.341Z,33.88
2022-08-17T15:45:43.450Z,33.98
2022-08-17T15:48:10.631Z,33.99
2022-08-17T15:50:38.308Z,34.05
2022-08-17T15:53:05.678Z,33.90
2022-08-17T15:55:33.178Z,34.02
2022-08-17T15:58:00.769Z,33.61
2022-08-17T16:00:29.417Z,34.07
2022-08-17T16:03:13.420Z,33.61
2022-08-17T16:05:47.697Z,33.83
2022-08-17T16:08:20.024Z,33.84
2022-08-17T16:10:48.373Z,33.92
2022-08-17T16:13:17.506Z,33.62
2022-08-17T16:15:51.072Z,33.89
2022-08-17T16:18:31.416Z,33.84
2022-08-17T16:21:19.598Z,33.81
2022-08-17T16:23:49.227Z,33.68
2022-08-17T16:26:16.250Z,33.70
2022-08-17T16:28:43.090Z,33.66
2022-08-17T16:31:10.066Z,33.66
2022-08-17T16:33:39.442Z,33.67
2022-08-17T16:36:07.489Z,33.56
2022-08-17T16:38:36.030Z,33.48
2022-08-17T16:41:04.471Z,33.66
2022-08-17T16:43:32.124Z,33.53
2022-08-17T16:46:00.784Z,33.47
2022-08-17T16:48:29.161Z,33.01
2022-08-17T16:51:03.277Z,33.35
2022-08-17T16:53:31.968Z,33.25
2022-08-17T16:55:58.788Z,33.28
2022-08-17T16:58:25.552Z,33.15
2022-08-17T17:00:52.526Z,33.36
2022-08-17T17:03:24.662Z,33.18
2022-08-17T17:05:58.065Z,33.31
2022-08-17T17:08:44.811Z,33.21
2022-08-17T17:11:37.838Z,33.17
2022-08-17T17:14:09.679Z,32.93
2022-08-17T17:16:36.696Z,33.06
2022-08-17T17:19:11.936Z,32.68
2022-08-17T17:21:46.377Z,32.97
2022-08-17T17:24:32.535Z,32.64
2022-08-17T17:27:20.589Z,32.76
2022-08-17T17:29:59.548Z,32.60
2022-08-17T17:32:26.503Z,32.49
2022-08-17T17:35:04.471Z,32.19
2022-08-17T17:37:34.839Z,32.15
2022-08-17T17:40:17.469Z,32.15
2022-08-17T17:42:45.585Z,32.12
2022-08-17T17:45:26.138Z,32.06
2022-08-17T17:47:53.574Z,31.73
2022-08-17T17:50:30.987Z,31.82
2022-08-17T17:53:34.792Z,31.73
2022-08-17T17:56:44.208Z,31.64
2022-08-17T17:59:41.836Z,31.31
2022-08-17T18:02:44.618Z,31.50
2022-08-17T18:05:45.310Z,31.41
2022-08-17T18:08:21.839Z,31.14
2022-08-17T18:11:24.225Z,30.92
2022-08-17T18:14:14.805Z,31.19
2022-08-17T18:16:44.287Z,31.10
2022-08-17T18:19:20.085Z,31.04
2022-08-17T18:22:02.321Z,30.93
2022-08-17T18:24:36.225Z,30.70
2022-08-17T18:27:27.955Z,30.73
2022-08-17T18:29:57.713Z,30.64
2022-08-17T18:32:33.997Z,30.57
2022-08-17T18:35:09.958Z,30.49
2022-08-17T18:37:55.607Z,30.30
2022-08-17T18:40:31.761Z,30.21
2022-08-17T18:43:06.872Z,30.16
2022-08-17T18:45:40.792Z,30.21
2022-08-17T18:48:33.095Z,30.09
2022-08-17T18:51:39.952Z,29.83
2022-08-17T18:54:12.438Z,29.87
2022-08-17T18:56:54.385Z,29.77
2022-08-17T18:59:41.642Z,29.59
2022-08-17T19:02:32.468Z,29.47
2022-08-17T19:08:29.908Z,29.21
2022-08-17T19:11:19.075Z,29.14
2022-08-17T19:13:57.587Z,29.08
2022-08-17T19:16:31.328Z,29.03
2022-08-17T19:19:11.015Z,28.59
2022-08-17T19:21:43.671Z,28.72
2022-08-17T19:24:27.675Z,28.88
2022-08-17T19:27:12.232Z,28.77
2022-08-17T19:29:45.240Z,28.73
2022-08-17T19:32:18.507Z,28.36
2022-08-17T19:34:45.608Z,28.27
2022-08-17T19:37:28.823Z,28.29
2022-08-17T19:40:08.391Z,27.88
2022-08-17T19:43:16.599Z,28.13
2022-08-17T19:45:49.696Z,28.37
2022-08-17T19:48:40.692Z,28.28
2022-08-17T19:51:17.744Z,28.19
2022-08-17T19:54:05.796Z,27.77
2022-08-17T19:56:50.634Z,27.96
2022-08-17T19:59:41.439Z,27.60
2022-08-17T20:02:32.432Z,27.75
2022-08-17T20:05:03.253Z,27.61
2022-08-17T20:07:50.695Z,27.49
2022-08-17T20:10:33.509Z,27.03
2022-08-17T20:13:07.162Z,27.31
2022-08-17T20:15:36.390Z,27.27
2022-08-17T20:18:14.231Z,26.98
2022-08-17T20:20:54.720Z,27.12
2022-08-17T20:23:44.956Z,26.95
2022-08-17T20:26:23.487Z,26.91
2022-08-17T20:29:19.686Z,27.04
2022-08-17T20:32:13.743Z,26.97
2022-08-17T20:34:46.648Z,26.98
2022-08-17T20:37:16.160Z,26.94
2022-08-17T20:39:45.265Z,26.88
2022-08-17T20:42:20.878Z,26.87
2022-08-17T20:45:21.879Z,26.79
2022-08-17T20:48:18.489Z,26.67
2022-08-17T20:50:45.249Z,26.13
2022-08-17T20:53:32.494Z,26.55
2022-08-17T20:55:59.646Z,26.20
2022-08-17T20:58:31.114Z,26.42
2022-08-17T21:01:01.536Z,26.37
2022-08-17T21:03:50.252Z,26.36
2022-08-17T21:06:18.289Z,26.33
2022-08-17T21:08:53.854Z,26.29
2022-08-17T21:12:02.835Z,26.26
2022-08-17T21:14:19.186Z,26.23
2022-08-17T21:16:58.916Z,26.28
2022-08-17T21:20:09.751Z,26.21
2022-08-17T21:22:47.139Z,26.34
2022-08-17T21:25:57.782Z,26.14
2022-08-17T21:29:00.965Z,26.53
2022-08-17T21:31:39.561Z,26.19
2022-08-17T21:34:15.545Z,26.54
2022-08-17T21:36:44.480Z,26.41
2022-08-17T21:39:17.388Z,26.58
2022-08-17T21:41:53.161Z,26.47
2022-08-17T21:44:27.830Z,26.62
2022-08-17T21:47:18.515Z,26.35
2022-08-17T21:49:45.263Z,26.59
2022-08-17T21:52:18.171Z,26.60
2022-08-17T21:54:52.891Z,26.44
2022-08-17T21:57:27.443Z,26.57
2022-08-17T21:59:58.539Z,26.35
2022-08-17T22:02:54.015Z,26.43
2022-08-17T22:05:39.301Z,26.10
2022-08-17T22:08:26.479Z,26.03
2022-08-17T22:11:01.723Z,26.08
2022-08-17T22:13:29.661Z,25.55
2022-08-17T22:17:02.667Z,25.86
2022-08-17T22:23:33.487Z,25.60
2022-08-17T22:29:33.258Z,25.39
2022-08-17T22:36:11.665Z,25.11
2022-08-17T22:38:40.622Z,24.92
2022-08-17T22:41:32.023Z,23.83
2022-08-17T22:44:47.046Z,23.62
2022-08-17T22:47:17.105Z,24.70
2022-08-17T22:49:57.741Z,24.55
2022-08-17T22:52:33.967Z,24.61
2022-08-17T22:55:35.972Z,24.54
2022-08-17T22:58:40.145Z,24.41
2022-08-17T23:01:34.062Z,24.30
2022-08-17T23:04:48.196Z,24.22
2022-08-17T23:07:53.438Z,23.99
2022-08-17T23:10:20.386Z,24.03
2022-08-17T23:12:48.541Z,23.96
2022-08-17T23:15:22.209Z,24.02
2022-08-17T23:17:51.123Z,23.94
2022-08-17T23:20:19.302Z,23.89
2022-08-17T23:22:52.026Z,23.64
2022-08-17T23:25:36.577Z,23.96
2022-08-17T23:28:05.836Z,23.92
2022-08-17T23:30:43.836Z,23.97
2022-08-17T23:33:30.196Z,23.87
2022-08-17T23:36:00.602Z,23.73
2022-08-17T23:38:28.036Z,24.02
2022-08-17T23:41:00.056Z,23.97
2022-08-17T23:43:32.912Z,24.16
2022-08-17T23:46:00.907Z,24.16
2022-08-17T23:48:36.345Z,24.22
2022-08-17T23:51:20.620Z,24.06
2022-08-17T23:54:13.857Z,24.29
2022-08-17T23:57:00.570Z,24.04
2022-08-17T23:59:33.642Z,23.17
